Airfield :
LOGIN :

Register | Disclaimer

   EN    FR    IT 

 










Legend :    VFR   Marginal VFR   IFR   Intensive IFR   Very Intensive IFR
Visi :
Ceiling :
>= 8 km
>= 3000ft
5 to 8 km
1000 to 3000 ft
1500m to 5 km
500 to 1000 ft
800 to 1500m
200 to 500 ft
< 800m
< 200 ft
Symbols :   Thunderstorms  Fog  Heavy snow  Heavy precipitations  Wind > 20 kt
SIGMETs :     Misc.  Thunderstorms  Icing  Turbulence  Mountain Waves  Volcanic Ashes






- Airport Elevation : 276 ft
- IATA code : RBA


GMME - Rabat

CURRENT METAR :
  • 251230Z 27008KT 240V320 8000 SCT013 SCT020 18/13 Q1027 NOSIG

EXPIRED METARs :
  • 251200Z 29010KT 250V320 8000 SCT013 SCT020 17/13 Q1028 NOSIG
  • 251130Z 26007KT 220V320 8000 SCT013 SCT020 18/13 Q1028 NOSIG
  • 251100Z 24007KT 6000 FEW013 18/13 Q1028 NOSIG
  • 251030Z 25007KT 210V280 6000 FEW013 18/12 Q1028 NOSIG
  • 251000Z 25006KT 5000 FEW010 17/12 Q1028 NOSIG

TAF TAF GMME
Valid from the 25 at 12:00 until the 26 at 18:00 UTC


251100Z 2512/2618 24011KT 8000 SCT016 SCT020
TEMPO 2522/2606 VRB02KT



MET'MAP, your aeronautical weather chart ! - Copyright ORBIFLY December 2007 - Disclaimer

ORBIFLY MET'MAP TEAM :

Programming & Development : Alexandra Zaïnal
Concept & original design : Baudouin d'Aumeries
Assistance for programming : Marc-Olivier Méhu
Technical & hardware support : Manuel Goepfert

Contact : metmap@orbifly.com




SOURCES & CREDITS :

   NOAA